Yasemin — 9HA2114 — position and weather

sailwx.info

Track history (hours):
 
Tides and Currents Weather Stations Pressure Air Temp Water Temp Dewpoint Dewpoint Depression Visibility Wind Speed Wind Dir Waves Ship Positions

Yasemin

Last reported at 2017-Sep-18 09:05 UTC. Time now 2017-Sep-24 07:08 UTC.
Position N 04°17' W 002°49'.

Length 105 m; draft 6.1 m.

Type: Cargo ship. MMSI: 249988000.

Date/timePositionNaut miles runAvg speedWind from/ knotsBaromVisibWave heightAir tempDewpointWater temp
2017-Sep-18 09:05N 04°17' W 002°49'1 9.4
2017-Sep-18 08:58N 04°17' W 002°48'4 9.4
2017-Sep-18 08:30N 04°17' W 002°44'5 9.4
2017-Sep-18 07:57N 04°18' W 002°38'4 9.5
2017-Sep-18 07:30N 04°19' W 002°34'5 9.4
2017-Sep-18 07:00N 04°20' W 002°30'510.0
2017-Sep-18 06:30N 04°23' W 002°25'510.1
2017-Sep-18 06:00N 04°25' W 002°21'510.7
2017-Sep-18 05:30N 04°27' W 002°16'610.9
2017-Sep-18 04:59N 04°29' W 002°11'510.8
2017-Sep-18 04:29N 04°31' W 002°05'510.9
2017-Sep-18 04:00N 04°32' W 002°00'2410.8
2017-Sep-18 01:45N 04°34' W 001°36'310.5
2017-Sep-18 01:29N 04°36' W 001°34'9010.0
2017-Sep-17 16:32N 05°23' W 000°17'0 9.9
2017-Sep-17 16:30N 05°23' W 000°17'5 9.7
2017-Sep-17 16:00N 05°25' W 000°12'5 9.7
2017-Sep-17 15:30N 05°28' W 000°08'5 9.6
2017-Sep-17 15:00N 05°30' W 000°04'5 9.5
2017-Sep-17 14:30N 05°33' E 000°00'5 9.4
2017-Sep-17 14:00N 05°36' E 000°04'3 6.3
2017-Sep-17 13:30N 05°38' E 000°01'0 0.7
2017-Sep-17 13:00N 05°38' E 000°01'0 0.0
2017-Sep-17 12:30N 05°38' E 000°01'0 0.0
2017-Sep-17 12:00N 05°38' E 000°01'0 0.0
2017-Sep-17 11:30N 05°38' E 000°01'0 0.0
2017-Sep-17 11:00N 05°38' E 000°01'0 0.0
2017-Sep-17 10:30N 05°38' E 000°01'0 0.0
2017-Sep-17 10:00N 05°38' E 000°01'0 0.0
2017-Sep-17 09:30N 05°38' E 000°01'0 0.0
2017-Sep-17 09:00N 05°38' E 000°01'0 0.0
2017-Sep-17 08:30N 05°38' E 000°01'0 0.0
2017-Sep-17 08:00N 05°38' E 000°01'0 0.0
2017-Sep-17 07:30N 05°38' E 000°01'0 0.0
2017-Sep-17 07:00N 05°38' E 000°01'0 0.0
2017-Sep-17 06:30N 05°38' E 000°01'0 0.0
2017-Sep-17 06:00N 05°38' E 000°01'0 0.0
2017-Sep-17 05:30N 05°38' E 000°01'0 0.0
2017-Sep-17 05:00N 05°38' E 000°01'0 0.0
2017-Sep-17 04:30N 05°38' E 000°01'0 0.0
2017-Sep-17 04:00N 05°38' E 000°01'0 0.0
2017-Sep-17 03:30N 05°38' E 000°01'0 0.0
2017-Sep-17 03:00N 05°38' E 000°01'0 0.0
2017-Sep-17 02:30N 05°38' E 000°01'0 0.0
2017-Sep-17 02:00N 05°38' E 000°01'0 0.0
2017-Sep-17 01:30N 05°38' E 000°01'0 0.0
2017-Sep-17 01:00N 05°38' E 000°01'0 0.0
2017-Sep-17 00:30N 05°38' E 000°01'0 0.0
2017-Sep-17 00:00N 05°38' E 000°01'0 0.0
2017-Sep-16 23:30N 05°38' E 000°01'0 0.0
2017-Sep-16 23:00N 05°38' E 000°01'0 0.0
2017-Sep-16 22:30N 05°38' E 000°01'0 0.0
2017-Sep-16 22:00N 05°38' E 000°01'0 0.0
2017-Sep-16 21:30N 05°38' E 000°01'0 0.0
2017-Sep-16 21:00N 05°38' E 000°01'0 0.0
2017-Sep-16 20:30N 05°38' E 000°01'0 0.0
2017-Sep-16 20:00N 05°38' E 000°01'0 0.0
2017-Sep-16 19:30N 05°38' E 000°01'0 0.0
2017-Sep-16 19:00N 05°38' E 000°01'0 0.0
2017-Sep-16 18:30N 05°38' E 000°01'0 0.0
2017-Sep-16 18:00N 05°38' E 000°01'0 0.0
2017-Sep-16 17:30N 05°38' E 000°01'0 0.0
2017-Sep-16 17:00N 05°38' E 000°01'0 0.0
2017-Sep-16 16:30N 05°38' E 000°01'0 0.0
2017-Sep-16 16:00N 05°38' E 000°01'0 0.0
2017-Sep-16 15:30N 05°38' E 000°01'0 0.0
2017-Sep-16 15:00N 05°38' E 000°01'0 0.0
2017-Sep-16 14:30N 05°38' E 000°01'0 0.0
2017-Sep-16 14:00N 05°38' E 000°01'0 0.0
2017-Sep-16 13:30N 05°38' E 000°01'0 0.0
2017-Sep-16 13:00N 05°38' E 000°01'0 0.0
2017-Sep-16 12:30N 05°38' E 000°01'0 0.0
2017-Sep-16 12:00N 05°38' E 000°01'0 0.0
2017-Sep-16 11:30N 05°38' E 000°01'0 0.0
2017-Sep-16 11:00N 05°38' E 000°01'0 0.0
2017-Sep-16 10:30N 05°38' E 000°01'0 0.0
2017-Sep-16 10:00N 05°38' E 000°01'0 0.0
2017-Sep-16 09:30N 05°38' E 000°01'0 0.0
2017-Sep-16 08:57N 05°38' E 000°01'0 0.0
2017-Sep-16 08:30N 05°38' E 000°01'0 0.0
2017-Sep-16 08:00N 05°38' E 000°01'0 0.0
2017-Sep-16 07:30N 05°38' E 000°01'0 0.0
2017-Sep-16 07:00N 05°38' E 000°01'0 0.0
2017-Sep-16 06:30N 05°38' E 000°01'0 0.0
2017-Sep-16 06:00N 05°38' E 000°01'0 0.0
2017-Sep-16 05:30N 05°38' E 000°01'0 0.0
2017-Sep-16 05:00N 05°38' E 000°01'0 0.0
2017-Sep-16 04:30N 05°38' E 000°01'0 0.0
2017-Sep-16 03:54N 05°38' E 000°01'0 0.0
2017-Sep-16 03:30N 05°38' E 000°01'0 0.0
2017-Sep-16 03:00N 05°38' E 000°01'0 0.0
2017-Sep-16 02:30N 05°38' E 000°01'0 0.0
2017-Sep-16 02:00N 05°38' E 000°01'0 0.0
2017-Sep-16 01:30N 05°38' E 000°01'0 0.0
2017-Sep-16 01:00N 05°38' E 000°01'0 0.0
2017-Sep-16 00:30N 05°38' E 000°01'0 0.0
2017-Sep-16 00:00N 05°38' E 000°01'0 0.0
2017-Sep-15 23:30N 05°38' E 000°01'0 0.0
2017-Sep-15 23:00N 05°38' E 000°01'0 0.0
2017-Sep-15 22:30N 05°38' E 000°01'0 0.0
2017-Sep-15 22:00N 05°38' E 000°01'0 0.0
2017-Sep-15 21:30N 05°38' E 000°01'0 0.0
2017-Sep-15 21:00N 05°38' E 000°01'0 0.0
2017-Sep-15 20:30N 05°38' E 000°01'0 0.0
2017-Sep-15 20:00N 05°38' E 000°01'0 0.0
2017-Sep-15 19:30N 05°38' E 000°01'0 0.0
2017-Sep-15 19:00N 05°38' E 000°01'0 0.0
2017-Sep-15 18:30N 05°38' E 000°01'0 0.0
2017-Sep-15 18:00N 05°38' E 000°01'0 0.0
2017-Sep-15 17:30N 05°38' E 000°01'0 0.0
2017-Sep-15 17:00N 05°38' E 000°01'0 0.0
2017-Sep-15 16:30N 05°38' E 000°01'0 0.0
2017-Sep-15 16:00N 05°38' E 000°01'0 0.0
2017-Sep-15 15:30N 05°38' E 000°01'0 0.0
2017-Sep-15 15:00N 05°38' E 000°01'0 0.0
2017-Sep-15 14:30N 05°38' E 000°01'0 0.0
2017-Sep-15 14:00N 05°38' E 000°01'0 0.0
2017-Sep-15 13:30N 05°38' E 000°01'0 0.0
2017-Sep-15 13:00N 05°38' E 000°01'0 0.0
2017-Sep-15 12:30N 05°38' E 000°01'0 0.0
2017-Sep-15 12:00N 05°38' E 000°01'0 0.0
2017-Sep-15 11:30N 05°38' E 000°01'0 0.0
2017-Sep-15 11:00N 05°38' E 000°01'0 0.0
2017-Sep-15 10:27N 05°38' E 000°01'0 0.0
2017-Sep-15 10:00N 05°38' E 000°01'0 0.0
2017-Sep-15 09:30N 05°38' E 000°01'0 0.0
2017-Sep-15 09:00N 05°38' E 000°01'0 0.0
2017-Sep-15 08:30N 05°38' E 000°01'0 0.0
2017-Sep-15 07:57N 05°38' E 000°01'0 0.0
2017-Sep-15 07:30N 05°38' E 000°01'0 0.0
2017-Sep-15 07:00N 05°38' E 000°01'0 0.0
2017-Sep-15 06:30N 05°38' E 000°01'0 0.0
2017-Sep-15 06:00N 05°38' E 000°01'0 0.0
2017-Sep-15 05:30N 05°38' E 000°01'0 0.0
2017-Sep-15 05:00N 05°38' E 000°01'0 0.0
2017-Sep-15 04:30N 05°38' E 000°01'0 0.0
2017-Sep-15 04:00N 05°38' E 000°01'0 0.0
2017-Sep-15 03:30N 05°38' E 000°01'0 0.0
2017-Sep-15 03:00N 05°38' E 000°01'0 0.0
2017-Sep-15 02:27N 05°38' E 000°01'0 0.0
2017-Sep-15 02:00N 05°38' E 000°01'0 0.0
2017-Sep-15 01:30N 05°38' E 000°01'0 0.0
2017-Sep-15 01:00N 05°38' E 000°01'0 0.0
2017-Sep-15 00:30N 05°38' E 000°01'0 0.0
2017-Sep-15 00:00N 05°38' E 000°01'0 0.0
2017-Sep-14 23:27N 05°38' E 000°01'0 0.0
2017-Sep-14 23:00N 05°38' E 000°01'0 0.0
2017-Sep-14 22:30N 05°38' E 000°01'0 0.0
2017-Sep-14 22:00N 05°38' E 000°01'0 0.0
2017-Sep-14 21:30N 05°38' E 000°01'0 0.0
2017-Sep-14 21:00N 05°38' E 000°01'0 0.0
2017-Sep-14 20:30N 05°38' E 000°01'0 0.0
2017-Sep-14 20:00N 05°38' E 000°01'0 0.0
2017-Sep-14 19:30N 05°38' E 000°01'0 0.0
2017-Sep-14 19:00N 05°38' E 000°01'0 0.0
2017-Sep-14 18:30N 05°38' E 000°01'0 0.0
2017-Sep-14 18:00N 05°38' E 000°01'0 0.0
2017-Sep-14 17:24N 05°38' E 000°01'0 0.0
2017-Sep-14 17:00N 05°38' E 000°01'0 0.0
2017-Sep-14 16:30N 05°38' E 000°01'0 0.0
2017-Sep-14 16:00N 05°38' E 000°01'0 0.0
2017-Sep-14 15:30N 05°38' E 000°01'0 0.0
2017-Sep-14 15:00N 05°38' E 000°01'0 0.0
2017-Sep-14 14:30N 05°38' E 000°01'0 0.0
2017-Sep-14 14:00N 05°38' E 000°01'0 0.0
2017-Sep-14 13:30N 05°38' E 000°01'0 0.0
2017-Sep-14 13:00N 05°38' E 000°01'0 0.0
2017-Sep-14 12:30N 05°38' E 000°01'0 0.0
2017-Sep-14 12:00N 05°38' E 000°01'0 0.0
2017-Sep-14 11:30N 05°38' E 000°01'0 0.0
2017-Sep-14 10:51N 05°38' E 000°01'0 0.0
2017-Sep-14 10:30N 05°38' E 000°01'0 0.0
2017-Sep-14 10:00N 05°38' E 000°01'0 0.0
2017-Sep-14 09:30N 05°38' E 000°01'0 0.0
2017-Sep-14 09:00N 05°38' E 000°01'0 0.0
2017-Sep-14 08:30N 05°38' E 000°01'0 0.0
2017-Sep-14 08:00N 05°38' E 000°01'0 0.1
2017-Sep-14 07:30N 05°38' E 000°01'1 2.1
2017-Sep-14 07:01N 05°38' E 000°02'0 1.0
2017-Sep-14 06:31N 05°38' E 000°02'3 5.5
2017-Sep-14 06:00N 05°35' E 000°04'0 0.3
2017-Sep-14 05:29N 05°35' E 000°04'0 0.0
2017-Sep-14 04:59N 05°35' E 000°04'0 0.0
2017-Sep-14 04:29N 05°35' E 000°04'0 0.0
2017-Sep-14 03:59N 05°35' E 000°04'0 0.0
2017-Sep-14 03:23N 05°35' E 000°04'0 0.0
2017-Sep-14 02:59N 05°35' E 000°04'0 0.0
2017-Sep-14 02:29N 05°35' E 000°04'0 0.0
2017-Sep-14 01:59N 05°35' E 000°04'0 0.0
2017-Sep-14 01:29N 05°35' E 000°04'0 0.0
2017-Sep-14 00:59N 05°35' E 000°04'0 0.0
2017-Sep-14 00:29N 05°35' E 000°04'0 0.0
2017-Sep-13 23:59N 05°35' E 000°04'0 0.1
2017-Sep-13 23:29N 05°35' E 000°04'0 0.0
2017-Sep-13 22:59N 05°35' E 000°04'0 0.0
2017-Sep-13 22:29N 05°35' E 000°04'0 0.1
2017-Sep-13 22:00N 05°35' E 000°04'1 2.9
2017-Sep-13 21:30N 05°35' E 000°05'5 9.8
2017-Sep-13 21:00N 05°34' E 000°10'5 9.8
2017-Sep-13 20:30N 05°34' E 000°15'510.2
2017-Sep-13 20:00N 05°33' E 000°20'610.5
2017-Sep-13 19:26N 05°32' E 000°26'610.5
2017-Sep-13 18:55N 05°30' E 000°31'  
Track history (hours):
 
Tides and Currents Weather Stations Pressure Air Temp Water Temp Dewpoint Dewpoint Depression Visibility Wind Speed Wind Dir Waves Ship Positions

Yasemin

Last reported at 2017-Sep-18 09:05 UTC. Time now 2017-Sep-24 07:08 UTC.
Position N 04°17' W 002°49'.

Length 105 m; draft 6.1 m.

Type: Cargo ship. MMSI: 249988000.

Date/timePositionNaut miles runAvg speedWind from/ knotsBaromVisibWave heightAir tempDewpointWater temp
2017-Sep-18 09:05N 04°17' W 002°49'1 9.4
2017-Sep-18 08:58N 04°17' W 002°48'4 9.4
2017-Sep-18 08:30N 04°17' W 002°44'5 9.4
2017-Sep-18 07:57N 04°18' W 002°38'4 9.5
2017-Sep-18 07:30N 04°19' W 002°34'5 9.4
2017-Sep-18 07:00N 04°20' W 002°30'510.0
2017-Sep-18 06:30N 04°23' W 002°25'510.1
2017-Sep-18 06:00N 04°25' W 002°21'510.7
2017-Sep-18 05:30N 04°27' W 002°16'610.9
2017-Sep-18 04:59N 04°29' W 002°11'510.8
2017-Sep-18 04:29N 04°31' W 002°05'510.9
2017-Sep-18 04:00N 04°32' W 002°00'2410.8
2017-Sep-18 01:45N 04°34' W 001°36'310.5
2017-Sep-18 01:29N 04°36' W 001°34'9010.0
2017-Sep-17 16:32N 05°23' W 000°17'0 9.9
2017-Sep-17 16:30N 05°23' W 000°17'5 9.7
2017-Sep-17 16:00N 05°25' W 000°12'5 9.7
2017-Sep-17 15:30N 05°28' W 000°08'5 9.6
2017-Sep-17 15:00N 05°30' W 000°04'5 9.5
2017-Sep-17 14:30N 05°33' E 000°00'5 9.4
2017-Sep-17 14:00N 05°36' E 000°04'3 6.3
2017-Sep-17 13:30N 05°38' E 000°01'0 0.7
2017-Sep-17 13:00N 05°38' E 000°01'0 0.0
2017-Sep-17 12:30N 05°38' E 000°01'0 0.0
2017-Sep-17 12:00N 05°38' E 000°01'0 0.0
2017-Sep-17 11:30N 05°38' E 000°01'0 0.0
2017-Sep-17 11:00N 05°38' E 000°01'0 0.0
2017-Sep-17 10:30N 05°38' E 000°01'0 0.0
2017-Sep-17 10:00N 05°38' E 000°01'0 0.0
2017-Sep-17 09:30N 05°38' E 000°01'0 0.0
2017-Sep-17 09:00N 05°38' E 000°01'0 0.0
2017-Sep-17 08:30N 05°38' E 000°01'0 0.0
2017-Sep-17 08:00N 05°38' E 000°01'0 0.0
2017-Sep-17 07:30N 05°38' E 000°01'0 0.0
2017-Sep-17 07:00N 05°38' E 000°01'0 0.0
2017-Sep-17 06:30N 05°38' E 000°01'0 0.0
2017-Sep-17 06:00N 05°38' E 000°01'0 0.0
2017-Sep-17 05:30N 05°38' E 000°01'0 0.0
2017-Sep-17 05:00N 05°38' E 000°01'0 0.0
2017-Sep-17 04:30N 05°38' E 000°01'0 0.0
2017-Sep-17 04:00N 05°38' E 000°01'0 0.0
2017-Sep-17 03:30N 05°38' E 000°01'0 0.0
2017-Sep-17 03:00N 05°38' E 000°01'0 0.0
2017-Sep-17 02:30N 05°38' E 000°01'0 0.0
2017-Sep-17 02:00N 05°38' E 000°01'0 0.0
2017-Sep-17 01:30N 05°38' E 000°01'0 0.0
2017-Sep-17 01:00N 05°38' E 000°01'0 0.0
2017-Sep-17 00:30N 05°38' E 000°01'0 0.0
2017-Sep-17 00:00N 05°38' E 000°01'0 0.0
2017-Sep-16 23:30N 05°38' E 000°01'0 0.0
2017-Sep-16 23:00N 05°38' E 000°01'0 0.0
2017-Sep-16 22:30N 05°38' E 000°01'0 0.0
2017-Sep-16 22:00N 05°38' E 000°01'0 0.0
2017-Sep-16 21:30N 05°38' E 000°01'0 0.0
2017-Sep-16 21:00N 05°38' E 000°01'0 0.0
2017-Sep-16 20:30N 05°38' E 000°01'0 0.0
2017-Sep-16 20:00N 05°38' E 000°01'0 0.0
2017-Sep-16 19:30N 05°38' E 000°01'0 0.0
2017-Sep-16 19:00N 05°38' E 000°01'0 0.0
2017-Sep-16 18:30N 05°38' E 000°01'0 0.0
2017-Sep-16 18:00N 05°38' E 000°01'0 0.0
2017-Sep-16 17:30N 05°38' E 000°01'0 0.0
2017-Sep-16 17:00N 05°38' E 000°01'0 0.0
2017-Sep-16 16:30N 05°38' E 000°01'0 0.0
2017-Sep-16 16:00N 05°38' E 000°01'0 0.0
2017-Sep-16 15:30N 05°38' E 000°01'0 0.0
2017-Sep-16 15:00N 05°38' E 000°01'0 0.0
2017-Sep-16 14:30N 05°38' E 000°01'0 0.0
2017-Sep-16 14:00N 05°38' E 000°01'0 0.0
2017-Sep-16 13:30N 05°38' E 000°01'0 0.0
2017-Sep-16 13:00N 05°38' E 000°01'0 0.0
2017-Sep-16 12:30N 05°38' E 000°01'0 0.0
2017-Sep-16 12:00N 05°38' E 000°01'0 0.0
2017-Sep-16 11:30N 05°38' E 000°01'0 0.0
2017-Sep-16 11:00N 05°38' E 000°01'0 0.0
2017-Sep-16 10:30N 05°38' E 000°01'0 0.0
2017-Sep-16 10:00N 05°38' E 000°01'0 0.0
2017-Sep-16 09:30N 05°38' E 000°01'0 0.0
2017-Sep-16 08:57N 05°38' E 000°01'0 0.0
2017-Sep-16 08:30N 05°38' E 000°01'0 0.0
2017-Sep-16 08:00N 05°38' E 000°01'0 0.0
2017-Sep-16 07:30N 05°38' E 000°01'0 0.0
2017-Sep-16 07:00N 05°38' E 000°01'0 0.0
2017-Sep-16 06:30N 05°38' E 000°01'0 0.0
2017-Sep-16 06:00N 05°38' E 000°01'0 0.0
2017-Sep-16 05:30N 05°38' E 000°01'0 0.0
2017-Sep-16 05:00N 05°38' E 000°01'0 0.0
2017-Sep-16 04:30N 05°38' E 000°01'0 0.0
2017-Sep-16 03:54N 05°38' E 000°01'0 0.0
2017-Sep-16 03:30N 05°38' E 000°01'0 0.0
2017-Sep-16 03:00N 05°38' E 000°01'0 0.0
2017-Sep-16 02:30N 05°38' E 000°01'0 0.0
2017-Sep-16 02:00N 05°38' E 000°01'0 0.0
2017-Sep-16 01:30N 05°38' E 000°01'0 0.0
2017-Sep-16 01:00N 05°38' E 000°01'0 0.0
2017-Sep-16 00:30N 05°38' E 000°01'0 0.0
2017-Sep-16 00:00N 05°38' E 000°01'0 0.0
2017-Sep-15 23:30N 05°38' E 000°01'0 0.0
2017-Sep-15 23:00N 05°38' E 000°01'0 0.0
2017-Sep-15 22:30N 05°38' E 000°01'0 0.0
2017-Sep-15 22:00N 05°38' E 000°01'0 0.0
2017-Sep-15 21:30N 05°38' E 000°01'0 0.0
2017-Sep-15 21:00N 05°38' E 000°01'0 0.0
2017-Sep-15 20:30N 05°38' E 000°01'0 0.0
2017-Sep-15 20:00N 05°38' E 000°01'0 0.0
2017-Sep-15 19:30N 05°38' E 000°01'0 0.0
2017-Sep-15 19:00N 05°38' E 000°01'0 0.0
2017-Sep-15 18:30N 05°38' E 000°01'0 0.0
2017-Sep-15 18:00N 05°38' E 000°01'0 0.0
2017-Sep-15 17:30N 05°38' E 000°01'0 0.0
2017-Sep-15 17:00N 05°38' E 000°01'0 0.0
2017-Sep-15 16:30N 05°38' E 000°01'0 0.0
2017-Sep-15 16:00N 05°38' E 000°01'0 0.0
2017-Sep-15 15:30N 05°38' E 000°01'0 0.0
2017-Sep-15 15:00N 05°38' E 000°01'0 0.0
2017-Sep-15 14:30N 05°38' E 000°01'0 0.0
2017-Sep-15 14:00N 05°38' E 000°01'0 0.0
2017-Sep-15 13:30N 05°38' E 000°01'0 0.0
2017-Sep-15 13:00N 05°38' E 000°01'0 0.0
2017-Sep-15 12:30N 05°38' E 000°01'0 0.0
2017-Sep-15 12:00N 05°38' E 000°01'0 0.0
2017-Sep-15 11:30N 05°38' E 000°01'0 0.0
2017-Sep-15 11:00N 05°38' E 000°01'0 0.0
2017-Sep-15 10:27N 05°38' E 000°01'0 0.0
2017-Sep-15 10:00N 05°38' E 000°01'0 0.0
2017-Sep-15 09:30N 05°38' E 000°01'0 0.0
2017-Sep-15 09:00N 05°38' E 000°01'0 0.0
2017-Sep-15 08:30N 05°38' E 000°01'0 0.0
2017-Sep-15 07:57N 05°38' E 000°01'0 0.0
2017-Sep-15 07:30N 05°38' E 000°01'0 0.0
2017-Sep-15 07:00N 05°38' E 000°01'0 0.0
2017-Sep-15 06:30N 05°38' E 000°01'0 0.0
2017-Sep-15 06:00N 05°38' E 000°01'0 0.0
2017-Sep-15 05:30N 05°38' E 000°01'0 0.0
2017-Sep-15 05:00N 05°38' E 000°01'0 0.0
2017-Sep-15 04:30N 05°38' E 000°01'0 0.0
2017-Sep-15 04:00N 05°38' E 000°01'0 0.0
2017-Sep-15 03:30N 05°38' E 000°01'0 0.0
2017-Sep-15 03:00N 05°38' E 000°01'0 0.0
2017-Sep-15 02:27N 05°38' E 000°01'0 0.0
2017-Sep-15 02:00N 05°38' E 000°01'0 0.0
2017-Sep-15 01:30N 05°38' E 000°01'0 0.0
2017-Sep-15 01:00N 05°38' E 000°01'0 0.0
2017-Sep-15 00:30N 05°38' E 000°01'0 0.0
2017-Sep-15 00:00N 05°38' E 000°01'0 0.0
2017-Sep-14 23:27N 05°38' E 000°01'0 0.0
2017-Sep-14 23:00N 05°38' E 000°01'0 0.0
2017-Sep-14 22:30N 05°38' E 000°01'0 0.0
2017-Sep-14 22:00N 05°38' E 000°01'0 0.0
2017-Sep-14 21:30N 05°38' E 000°01'0 0.0
2017-Sep-14 21:00N 05°38' E 000°01'0 0.0
2017-Sep-14 20:30N 05°38' E 000°01'0 0.0
2017-Sep-14 20:00N 05°38' E 000°01'0 0.0
2017-Sep-14 19:30N 05°38' E 000°01'0 0.0
2017-Sep-14 19:00N 05°38' E 000°01'0 0.0
2017-Sep-14 18:30N 05°38' E 000°01'0 0.0
2017-Sep-14 18:00N 05°38' E 000°01'0 0.0
2017-Sep-14 17:24N 05°38' E 000°01'0 0.0
2017-Sep-14 17:00N 05°38' E 000°01'0 0.0
2017-Sep-14 16:30N 05°38' E 000°01'0 0.0
2017-Sep-14 16:00N 05°38' E 000°01'0 0.0
2017-Sep-14 15:30N 05°38' E 000°01'0 0.0
2017-Sep-14 15:00N 05°38' E 000°01'0 0.0
2017-Sep-14 14:30N 05°38' E 000°01'0 0.0
2017-Sep-14 14:00N 05°38' E 000°01'0 0.0
2017-Sep-14 13:30N 05°38' E 000°01'0 0.0
2017-Sep-14 13:00N 05°38' E 000°01'0 0.0
2017-Sep-14 12:30N 05°38' E 000°01'0 0.0
2017-Sep-14 12:00N 05°38' E 000°01'0 0.0
2017-Sep-14 11:30N 05°38' E 000°01'0 0.0
2017-Sep-14 10:51N 05°38' E 000°01'0 0.0
2017-Sep-14 10:30N 05°38' E 000°01'0 0.0
2017-Sep-14 10:00N 05°38' E 000°01'0 0.0
2017-Sep-14 09:30N 05°38' E 000°01'0 0.0
2017-Sep-14 09:00N 05°38' E 000°01'0 0.0
2017-Sep-14 08:30N 05°38' E 000°01'0 0.0
2017-Sep-14 08:00N 05°38' E 000°01'0 0.1
2017-Sep-14 07:30N 05°38' E 000°01'1 2.1
2017-Sep-14 07:01N 05°38' E 000°02'0 1.0
2017-Sep-14 06:31N 05°38' E 000°02'3 5.5
2017-Sep-14 06:00N 05°35' E 000°04'0 0.3
2017-Sep-14 05:29N 05°35' E 000°04'0 0.0
2017-Sep-14 04:59N 05°35' E 000°04'0 0.0
2017-Sep-14 04:29N 05°35' E 000°04'0 0.0
2017-Sep-14 03:59N 05°35' E 000°04'0 0.0
2017-Sep-14 03:23N 05°35' E 000°04'0 0.0
2017-Sep-14 02:59N 05°35' E 000°04'0 0.0
2017-Sep-14 02:29N 05°35' E 000°04'0 0.0
2017-Sep-14 01:59N 05°35' E 000°04'0 0.0
2017-Sep-14 01:29N 05°35' E 000°04'0 0.0
2017-Sep-14 00:59N 05°35' E 000°04'0 0.0
2017-Sep-14 00:29N 05°35' E 000°04'0 0.0
2017-Sep-13 23:59N 05°35' E 000°04'0 0.1
2017-Sep-13 23:29N 05°35' E 000°04'0 0.0
2017-Sep-13 22:59N 05°35' E 000°04'0 0.0
2017-Sep-13 22:29N 05°35' E 000°04'0 0.1
2017-Sep-13 22:00N 05°35' E 000°04'1 2.9
2017-Sep-13 21:30N 05°35' E 000°05'5 9.8
2017-Sep-13 21:00N 05°34' E 000°10'5 9.8
2017-Sep-13 20:30N 05°34' E 000°15'510.2
2017-Sep-13 20:00N 05°33' E 000°20'610.5
2017-Sep-13 19:26N 05°32' E 000°26'610.5
2017-Sep-13 18:55N 05°30' E 000°31'  

Dump ship's entire track history